sensor_id;sensor_type;location;lat;lon;timestamp;P1;durP1;ratioP1;P2;durP2;ratioP2
19944;SDS011;10134;50.952;6.930;2022-07-30T00:00:24;7.68;;;5.18;;
19944;SDS011;10134;50.952;6.930;2022-07-30T00:02:51;7.18;;;5.57;;
19944;SDS011;10134;50.952;6.930;2022-07-30T00:05:19;10.15;;;6.75;;
19944;SDS011;10134;50.952;6.930;2022-07-30T00:07:46;8.77;;;6.97;;
19944;SDS011;10134;50.952;6.930;2022-07-30T00:10:13;9.85;;;6.78;;
19944;SDS011;10134;50.952;6.930;2022-07-30T00:12:41;8.95;;;5.80;;
19944;SDS011;10134;50.952;6.930;2022-07-30T00:15:08;10.13;;;6.50;;
19944;SDS011;10134;50.952;6.930;2022-07-30T00:17:35;11.45;;;5.82;;
19944;SDS011;10134;50.952;6.930;2022-07-30T00:20:03;10.15;;;6.03;;
19944;SDS011;10134;50.952;6.930;2022-07-30T00:22:31;11.27;;;5.85;;
19944;SDS011;10134;50.952;6.930;2022-07-30T00:24:58;11.55;;;5.90;;
19944;SDS011;10134;50.952;6.930;2022-07-30T00:27:25;6.32;;;5.18;;
19944;SDS011;10134;50.952;6.930;2022-07-30T00:29:53;9.05;;;5.00;;
19944;SDS011;10134;50.952;6.930;2022-07-30T00:32:20;11.23;;;5.25;;
19944;SDS011;10134;50.952;6.930;2022-07-30T00:34:47;7.95;;;5.15;;
19944;SDS011;10134;50.952;6.930;2022-07-30T00:37:15;11.30;;;5.43;;
19944;SDS011;10134;50.952;6.930;2022-07-30T00:39:42;7.13;;;4.93;;
19944;SDS011;10134;50.952;6.930;2022-07-30T00:42:09;7.15;;;4.43;;
19944;SDS011;10134;50.952;6.930;2022-07-30T00:44:36;6.88;;;4.30;;
19944;SDS011;10134;50.952;6.930;2022-07-30T00:47:06;7.85;;;5.28;;
19944;SDS011;10134;50.952;6.930;2022-07-30T00:49:34;8.05;;;4.72;;
19944;SDS011;10134;50.952;6.930;2022-07-30T00:52:01;7.82;;;4.70;;
19944;SDS011;10134;50.952;6.930;2022-07-30T00:54:29;9.30;;;4.30;;
19944;SDS011;10134;50.952;6.930;2022-07-30T00:56:56;7.13;;;4.22;;
19944;SDS011;10134;50.952;6.930;2022-07-30T00:59:24;6.63;;;4.72;;
19944;SDS011;10134;50.952;6.930;2022-07-30T01:01:53;7.82;;;3.85;;
19944;SDS011;10134;50.952;6.930;2022-07-30T01:04:21;6.13;;;3.58;;
19944;SDS011;10134;50.952;6.930;2022-07-30T01:06:48;6.80;;;3.65;;
19944;SDS011;10134;50.952;6.930;2022-07-30T01:09:15;6.85;;;4.03;;
19944;SDS011;10134;50.952;6.930;2022-07-30T01:11:43;6.43;;;3.65;;
19944;SDS011;10134;50.952;6.930;2022-07-30T01:14:10;8.43;;;4.00;;
19944;SDS011;10134;50.952;6.930;2022-07-30T01:16:39;10.27;;;4.47;;
19944;SDS011;10134;50.952;6.930;2022-07-30T01:19:31;5.03;;;3.78;;
19944;SDS011;10134;50.952;6.930;2022-07-30T01:27:35;6.00;;;4.18;;
19944;SDS011;10134;50.952;6.930;2022-07-30T01:30:10;6.57;;;4.30;;
19944;SDS011;10134;50.952;6.930;2022-07-30T01:32:41;5.60;;;4.40;;
19944;SDS011;10134;50.952;6.930;2022-07-30T01:35:10;8.75;;;4.88;;
19944;SDS011;10134;50.952;6.930;2022-07-30T01:37:38;7.25;;;3.95;;
19944;SDS011;10134;50.952;6.930;2022-07-30T01:40:08;6.35;;;4.15;;
19944;SDS011;10134;50.952;6.930;2022-07-30T01:42:36;12.18;;;5.10;;
19944;SDS011;10134;50.952;6.930;2022-07-30T01:45:05;5.97;;;4.47;;
19944;SDS011;10134;50.952;6.930;2022-07-30T01:47:35;7.45;;;4.93;;
19944;SDS011;10134;50.952;6.930;2022-07-30T01:50:05;7.93;;;4.95;;
19944;SDS011;10134;50.952;6.930;2022-07-30T01:52:40;9.13;;;4.40;;
19944;SDS011;10134;50.952;6.930;2022-07-30T01:55:13;7.18;;;4.85;;
19944;SDS011;10134;50.952;6.930;2022-07-30T01:57:44;6.70;;;4.28;;
19944;SDS011;10134;50.952;6.930;2022-07-30T02:00:13;9.35;;;4.75;;
19944;SDS011;10134;50.952;6.930;2022-07-30T02:02:43;8.20;;;5.18;;
19944;SDS011;10134;50.952;6.930;2022-07-30T02:05:12;6.55;;;4.30;;
19944;SDS011;10134;50.952;6.930;2022-07-30T02:10:32;10.10;;;4.47;;
19944;SDS011;10134;50.952;6.930;2022-07-30T02:13:12;6.95;;;5.10;;
19944;SDS011;10134;50.952;6.930;2022-07-30T02:15:48;9.52;;;5.03;;
19944;SDS011;10134;50.952;6.930;2022-07-30T02:18:35;5.85;;;4.30;;
19944;SDS011;10134;50.952;6.930;2022-07-30T02:21:12;8.70;;;5.28;;
19944;SDS011;10134;50.952;6.930;2022-07-30T02:23:44;6.57;;;5.03;;
19944;SDS011;10134;50.952;6.930;2022-07-30T02:26:16;7.68;;;4.70;;
19944;SDS011;10134;50.952;6.930;2022-07-30T02:28:47;14.45;;;5.82;;
19944;SDS011;10134;50.952;6.930;2022-07-30T02:31:19;11.82;;;5.75;;
19944;SDS011;10134;50.952;6.930;2022-07-30T02:33:54;11.73;;;6.10;;
19944;SDS011;10134;50.952;6.930;2022-07-30T02:36:25;8.23;;;6.57;;
19944;SDS011;10134;50.952;6.930;2022-07-30T02:38:54;7.55;;;4.60;;
19944;SDS011;10134;50.952;6.930;2022-07-30T02:41:22;6.57;;;5.38;;
19944;SDS011;10134;50.952;6.930;2022-07-30T02:43:52;11.48;;;5.50;;
19944;SDS011;10134;50.952;6.930;2022-07-30T02:46:21;9.48;;;5.30;;
19944;SDS011;10134;50.952;6.930;2022-07-30T02:49:22;7.78;;;6.25;;
19944;SDS011;10134;50.952;6.930;2022-07-30T02:51:52;13.75;;;7.35;;
19944;SDS011;10134;50.952;6.930;2022-07-30T02:54:21;9.38;;;6.15;;
19944;SDS011;10134;50.952;6.930;2022-07-30T02:56:52;13.13;;;6.65;;
19944;SDS011;10134;50.952;6.930;2022-07-30T02:59:21;9.73;;;6.70;;
19944;SDS011;10134;50.952;6.930;2022-07-30T03:01:51;11.85;;;5.65;;
19944;SDS011;10134;50.952;6.930;2022-07-30T03:04:20;13.07;;;7.68;;
19944;SDS011;10134;50.952;6.930;2022-07-30T03:06:48;11.57;;;7.00;;
19944;SDS011;10134;50.952;6.930;2022-07-30T03:09:16;9.98;;;7.40;;
19944;SDS011;10134;50.952;6.930;2022-07-30T03:11:44;10.75;;;6.25;;
19944;SDS011;10134;50.952;6.930;2022-07-30T03:14:12;9.82;;;6.75;;
19944;SDS011;10134;50.952;6.930;2022-07-30T03:16:40;11.57;;;7.55;;
19944;SDS011;10134;50.952;6.930;2022-07-30T03:19:12;9.48;;;7.43;;
19944;SDS011;10134;50.952;6.930;2022-07-30T03:21:42;11.88;;;6.47;;
19944;SDS011;10134;50.952;6.930;2022-07-30T03:24:12;11.45;;;7.00;;
19944;SDS011;10134;50.952;6.930;2022-07-30T03:26:40;10.52;;;7.35;;
19944;SDS011;10134;50.952;6.930;2022-07-30T03:29:09;11.32;;;7.22;;
19944;SDS011;10134;50.952;6.930;2022-07-30T03:31:39;9.98;;;7.28;;
19944;SDS011;10134;50.952;6.930;2022-07-30T03:34:10;14.43;;;8.07;;
19944;SDS011;10134;50.952;6.930;2022-07-30T03:36:40;15.40;;;7.93;;
19944;SDS011;10134;50.952;6.930;2022-07-30T03:39:07;9.73;;;7.10;;
19944;SDS011;10134;50.952;6.930;2022-07-30T03:41:35;12.73;;;7.45;;
19944;SDS011;10134;50.952;6.930;2022-07-30T03:44:06;12.63;;;7.30;;
19944;SDS011;10134;50.952;6.930;2022-07-30T03:46:35;12.55;;;7.88;;
19944;SDS011;10134;50.952;6.930;2022-07-30T03:49:04;9.65;;;7.22;;
19944;SDS011;10134;50.952;6.930;2022-07-30T03:51:32;12.40;;;8.15;;
19944;SDS011;10134;50.952;6.930;2022-07-30T03:54:02;11.15;;;6.75;;
19944;SDS011;10134;50.952;6.930;2022-07-30T03:56:40;11.25;;;7.70;;
19944;SDS011;10134;50.952;6.930;2022-07-30T03:59:12;12.43;;;7.10;;
19944;SDS011;10134;50.952;6.930;2022-07-30T04:01:40;14.00;;;7.40;;
19944;SDS011;10134;50.952;6.930;2022-07-30T04:04:30;9.82;;;6.60;;
19944;SDS011;10134;50.952;6.930;2022-07-30T04:06:57;12.20;;;7.25;;
19944;SDS011;10134;50.952;6.930;2022-07-30T04:09:25;12.85;;;8.02;;
19944;SDS011;10134;50.952;6.930;2022-07-30T04:11:52;8.90;;;6.65;;
19944;SDS011;10134;50.952;6.930;2022-07-30T04:14:25;11.75;;;7.75;;
19944;SDS011;10134;50.952;6.930;2022-07-30T04:16:55;10.65;;;7.35;;
19944;SDS011;10134;50.952;6.930;2022-07-30T04:19:37;10.25;;;7.78;;
19944;SDS011;10134;50.952;6.930;2022-07-30T04:22:08;11.40;;;7.63;;
19944;SDS011;10134;50.952;6.930;2022-07-30T04:24:38;10.52;;;6.82;;
19944;SDS011;10134;50.952;6.930;2022-07-30T04:27:07;10.32;;;7.18;;
19944;SDS011;10134;50.952;6.930;2022-07-30T04:29:35;16.88;;;7.72;;
19944;SDS011;10134;50.952;6.930;2022-07-30T04:32:02;12.18;;;7.85;;
19944;SDS011;10134;50.952;6.930;2022-07-30T04:34:33;16.58;;;7.18;;
19944;SDS011;10134;50.952;6.930;2022-07-30T04:37:02;11.23;;;8.32;;
19944;SDS011;10134;50.952;6.930;2022-07-30T04:39:30;10.93;;;7.70;;
19944;SDS011;10134;50.952;6.930;2022-07-30T04:41:58;14.13;;;8.90;;
19944;SDS011;10134;50.952;6.930;2022-07-30T04:44:33;10.27;;;7.40;;
19944;SDS011;10134;50.952;6.930;2022-07-30T04:47:19;8.20;;;6.45;;
19944;SDS011;10134;50.952;6.930;2022-07-30T04:50:07;12.50;;;7.50;;
19944;SDS011;10134;50.952;6.930;2022-07-30T04:52:35;10.25;;;6.28;;
19944;SDS011;10134;50.952;6.930;2022-07-30T04:55:04;10.27;;;7.25;;
19944;SDS011;10134;50.952;6.930;2022-07-30T04:57:35;11.18;;;7.30;;
19944;SDS011;10134;50.952;6.930;2022-07-30T05:00:05;11.80;;;8.07;;
19944;SDS011;10134;50.952;6.930;2022-07-30T05:02:34;13.80;;;8.35;;
19944;SDS011;10134;50.952;6.930;2022-07-30T05:05:06;15.70;;;8.35;;
19944;SDS011;10134;50.952;6.930;2022-07-30T05:07:37;14.40;;;8.63;;
19944;SDS011;10134;50.952;6.930;2022-07-30T05:10:07;11.40;;;7.93;;
19944;SDS011;10134;50.952;6.930;2022-07-30T05:12:36;16.65;;;8.68;;
19944;SDS011;10134;50.952;6.930;2022-07-30T05:15:05;11.70;;;7.78;;
19944;SDS011;10134;50.952;6.930;2022-07-30T05:17:33;13.13;;;9.13;;
19944;SDS011;10134;50.952;6.930;2022-07-30T05:20:04;14.23;;;9.02;;
19944;SDS011;10134;50.952;6.930;2022-07-30T05:22:49;16.95;;;9.77;;
19944;SDS011;10134;50.952;6.930;2022-07-30T05:25:17;11.57;;;8.20;;
19944;SDS011;10134;50.952;6.930;2022-07-30T05:27:45;13.73;;;8.68;;
19944;SDS011;10134;50.952;6.930;2022-07-30T05:30:12;14.10;;;8.45;;
19944;SDS011;10134;50.952;6.930;2022-07-30T05:32:45;15.82;;;8.70;;
19944;SDS011;10134;50.952;6.930;2022-07-30T05:35:12;14.63;;;9.60;;
19944;SDS011;10134;50.952;6.930;2022-07-30T05:37:40;14.18;;;9.70;;
19944;SDS011;10134;50.952;6.930;2022-07-30T05:40:07;12.40;;;9.23;;
19944;SDS011;10134;50.952;6.930;2022-07-30T05:43:02;14.77;;;11.23;;
19944;SDS011;10134;50.952;6.930;2022-07-30T05:45:29;16.45;;;10.18;;
19944;SDS011;10134;50.952;6.930;2022-07-30T05:47:56;14.60;;;10.00;;
19944;SDS011;10134;50.952;6.930;2022-07-30T05:50:24;12.57;;;9.30;;
19944;SDS011;10134;50.952;6.930;2022-07-30T05:52:51;16.50;;;10.25;;
19944;SDS011;10134;50.952;6.930;2022-07-30T05:55:41;21.90;;;11.55;;
19944;SDS011;10134;50.952;6.930;2022-07-30T05:58:17;17.40;;;11.80;;
19944;SDS011;10134;50.952;6.930;2022-07-30T06:00:45;17.42;;;11.07;;
19944;SDS011;10134;50.952;6.930;2022-07-30T06:03:13;20.17;;;11.82;;
19944;SDS011;10134;50.952;6.930;2022-07-30T06:06:04;25.40;;;12.38;;
19944;SDS011;10134;50.952;6.930;2022-07-30T06:08:33;20.63;;;12.80;;
19944;SDS011;10134;50.952;6.930;2022-07-30T06:11:01;25.38;;;14.35;;
19944;SDS011;10134;50.952;6.930;2022-07-30T06:13:29;25.80;;;14.63;;
19944;SDS011;10134;50.952;6.930;2022-07-30T06:15:57;25.38;;;14.48;;
19944;SDS011;10134;50.952;6.930;2022-07-30T06:18:24;29.35;;;17.55;;
19944;SDS011;10134;50.952;6.930;2022-07-30T06:20:52;34.47;;;18.25;;
19944;SDS011;10134;50.952;6.930;2022-07-30T06:23:31;36.00;;;20.80;;
19944;SDS011;10134;50.952;6.930;2022-07-30T06:26:05;39.55;;;23.23;;
19944;SDS011;10134;50.952;6.930;2022-07-30T06:28:33;34.22;;;21.42;;
19944;SDS011;10134;50.952;6.930;2022-07-30T06:31:12;40.08;;;24.75;;
19944;SDS011;10134;50.952;6.930;2022-07-30T06:33:40;52.08;;;26.58;;
19944;SDS011;10134;50.952;6.930;2022-07-30T06:36:08;46.95;;;28.85;;
19944;SDS011;10134;50.952;6.930;2022-07-30T06:39:06;51.78;;;30.27;;
19944;SDS011;10134;50.952;6.930;2022-07-30T06:42:08;49.70;;;29.52;;
19944;SDS011;10134;50.952;6.930;2022-07-30T06:44:56;53.38;;;31.48;;
19944;SDS011;10134;50.952;6.930;2022-07-30T06:47:24;42.60;;;26.88;;
19944;SDS011;10134;50.952;6.930;2022-07-30T06:49:59;40.53;;;27.00;;
19944;SDS011;10134;50.952;6.930;2022-07-30T06:52:29;44.38;;;28.77;;
19944;SDS011;10134;50.952;6.930;2022-07-30T06:54:56;42.65;;;27.40;;
19944;SDS011;10134;50.952;6.930;2022-07-30T06:57:28;41.55;;;27.17;;
19944;SDS011;10134;50.952;6.930;2022-07-30T06:59:56;39.00;;;26.30;;
19944;SDS011;10134;50.952;6.930;2022-07-30T07:02:32;48.78;;;30.92;;
19944;SDS011;10134;50.952;6.930;2022-07-30T07:05:12;40.53;;;27.33;;
19944;SDS011;10134;50.952;6.930;2022-07-30T07:07:44;43.50;;;27.65;;
19944;SDS011;10134;50.952;6.930;2022-07-30T07:10:25;40.30;;;26.50;;
19944;SDS011;10134;50.952;6.930;2022-07-30T07:13:19;46.85;;;28.98;;
19944;SDS011;10134;50.952;6.930;2022-07-30T07:15:47;48.33;;;25.85;;
19944;SDS011;10134;50.952;6.930;2022-07-30T07:18:18;37.10;;;23.75;;
19944;SDS011;10134;50.952;6.930;2022-07-30T07:20:50;42.25;;;24.70;;
19944;SDS011;10134;50.952;6.930;2022-07-30T07:23:18;37.10;;;24.52;;
19944;SDS011;10134;50.952;6.930;2022-07-30T07:25:49;32.60;;;21.65;;
19944;SDS011;10134;50.952;6.930;2022-07-30T07:28:17;32.47;;;20.30;;
19944;SDS011;10134;50.952;6.930;2022-07-30T07:30:44;29.85;;;20.75;;
19944;SDS011;10134;50.952;6.930;2022-07-30T07:33:13;27.48;;;18.38;;
19944;SDS011;10134;50.952;6.930;2022-07-30T07:35:43;25.30;;;15.55;;
19944;SDS011;10134;50.952;6.930;2022-07-30T07:38:20;27.73;;;15.70;;
19944;SDS011;10134;50.952;6.930;2022-07-30T07:40:49;25.85;;;13.88;;
19944;SDS011;10134;50.952;6.930;2022-07-30T07:43:17;22.55;;;13.10;;
19944;SDS011;10134;50.952;6.930;2022-07-30T07:45:44;19.58;;;12.50;;
19944;SDS011;10134;50.952;6.930;2022-07-30T07:48:12;22.25;;;13.32;;
19944;SDS011;10134;50.952;6.930;2022-07-30T07:50:50;34.60;;;14.65;;
19944;SDS011;10134;50.952;6.930;2022-07-30T07:53:26;20.92;;;13.32;;
19944;SDS011;10134;50.952;6.930;2022-07-30T07:55:54;16.15;;;11.35;;
19944;SDS011;10134;50.952;6.930;2022-07-30T07:58:24;19.25;;;11.43;;
19944;SDS011;10134;50.952;6.930;2022-07-30T08:00:56;21.75;;;11.07;;
19944;SDS011;10134;50.952;6.930;2022-07-30T08:03:41;15.07;;;9.75;;
19944;SDS011;10134;50.952;6.930;2022-07-30T08:06:28;19.40;;;11.93;;
19944;SDS011;10134;50.952;6.930;2022-07-30T08:09:18;18.23;;;11.13;;
19944;SDS011;10134;50.952;6.930;2022-07-30T08:12:09;20.90;;;13.25;;
19944;SDS011;10134;50.952;6.930;2022-07-30T08:14:56;16.17;;;10.02;;
19944;SDS011;10134;50.952;6.930;2022-07-30T08:17:49;26.67;;;12.10;;
19944;SDS011;10134;50.952;6.930;2022-07-30T08:20:19;22.88;;;12.52;;
19944;SDS011;10134;50.952;6.930;2022-07-30T08:22:48;19.45;;;10.73;;
19944;SDS011;10134;50.952;6.930;2022-07-30T08:25:15;15.07;;;10.43;;
19944;SDS011;10134;50.952;6.930;2022-07-30T08:27:50;15.32;;;10.98;;
19944;SDS011;10134;50.952;6.930;2022-07-30T08:30:19;22.40;;;13.38;;
19944;SDS011;10134;50.952;6.930;2022-07-30T08:32:46;24.60;;;12.75;;
19944;SDS011;10134;50.952;6.930;2022-07-30T08:35:13;20.40;;;10.98;;
19944;SDS011;10134;50.952;6.930;2022-07-30T08:37:41;20.90;;;13.45;;
19944;SDS011;10134;50.952;6.930;2022-07-30T08:40:08;17.85;;;12.27;;
19944;SDS011;10134;50.952;6.930;2022-07-30T08:42:47;16.40;;;11.07;;
19944;SDS011;10134;50.952;6.930;2022-07-30T08:45:15;17.23;;;11.05;;
19944;SDS011;10134;50.952;6.930;2022-07-30T08:47:44;16.00;;;10.32;;
19944;SDS011;10134;50.952;6.930;2022-07-30T08:50:21;21.65;;;10.25;;
19944;SDS011;10134;50.952;6.930;2022-07-30T08:53:27;19.20;;;11.52;;
19944;SDS011;10134;50.952;6.930;2022-07-30T08:55:55;16.83;;;10.77;;
19944;SDS011;10134;50.952;6.930;2022-07-30T08:58:27;18.45;;;10.93;;
19944;SDS011;10134;50.952;6.930;2022-07-30T09:00:57;14.68;;;11.88;;
19944;SDS011;10134;50.952;6.930;2022-07-30T09:03:27;22.70;;;12.25;;
19944;SDS011;10134;50.952;6.930;2022-07-30T09:06:00;13.60;;;9.65;;
19944;SDS011;10134;50.952;6.930;2022-07-30T09:08:28;16.38;;;10.77;;
19944;SDS011;10134;50.952;6.930;2022-07-30T09:10:55;21.33;;;11.55;;
19944;SDS011;10134;50.952;6.930;2022-07-30T09:13:24;13.45;;;9.90;;
19944;SDS011;10134;50.952;6.930;2022-07-30T09:15:59;16.08;;;9.27;;
19944;SDS011;10134;50.952;6.930;2022-07-30T09:18:35;16.42;;;9.80;;
19944;SDS011;10134;50.952;6.930;2022-07-30T09:24:13;16.50;;;12.63;;
19944;SDS011;10134;50.952;6.930;2022-07-30T09:27:12;17.35;;;13.55;;
19944;SDS011;10134;50.952;6.930;2022-07-30T09:29:57;18.58;;;12.20;;
19944;SDS011;10134;50.952;6.930;2022-07-30T09:32:53;16.73;;;10.50;;
19944;SDS011;10134;50.952;6.930;2022-07-30T09:35:42;13.13;;;9.32;;
19944;SDS011;10134;50.952;6.930;2022-07-30T09:38:10;17.70;;;10.38;;
19944;SDS011;10134;50.952;6.930;2022-07-30T09:41:01;16.55;;;10.45;;
19944;SDS011;10134;50.952;6.930;2022-07-30T09:43:49;13.07;;;10.05;;
19944;SDS011;10134;50.952;6.930;2022-07-30T09:46:39;12.40;;;8.52;;
19944;SDS011;10134;50.952;6.930;2022-07-30T09:49:15;14.32;;;11.05;;
19944;SDS011;10134;50.952;6.930;2022-07-30T09:51:44;17.08;;;10.45;;
19944;SDS011;10134;50.952;6.930;2022-07-30T09:54:24;15.48;;;10.65;;
19944;SDS011;10134;50.952;6.930;2022-07-30T09:57:18;14.10;;;9.70;;
19944;SDS011;10134;50.952;6.930;2022-07-30T09:59:55;14.95;;;10.90;;
19944;SDS011;10134;50.952;6.930;2022-07-30T10:02:29;14.48;;;10.25;;
19944;SDS011;10134;50.952;6.930;2022-07-30T10:05:17;14.93;;;9.48;;
19944;SDS011;10134;50.952;6.930;2022-07-30T10:07:53;16.98;;;9.48;;
19944;SDS011;10134;50.952;6.930;2022-07-30T10:10:26;12.32;;;8.25;;
19944;SDS011;10134;50.952;6.930;2022-07-30T10:12:58;13.80;;;9.13;;
19944;SDS011;10134;50.952;6.930;2022-07-30T10:15:31;15.55;;;9.50;;
19944;SDS011;10134;50.952;6.930;2022-07-30T10:18:01;16.88;;;9.73;;
19944;SDS011;10134;50.952;6.930;2022-07-30T10:20:50;13.65;;;10.32;;
19944;SDS011;10134;50.952;6.930;2022-07-30T10:23:46;11.35;;;9.35;;
19944;SDS011;10134;50.952;6.930;2022-07-30T10:26:36;11.55;;;8.05;;
19944;SDS011;10134;50.952;6.930;2022-07-30T10:29:23;10.10;;;7.18;;
19944;SDS011;10134;50.952;6.930;2022-07-30T10:31:59;12.95;;;7.68;;
19944;SDS011;10134;50.952;6.930;2022-07-30T10:34:28;11.70;;;7.10;;
19944;SDS011;10134;50.952;6.930;2022-07-30T10:37:02;12.27;;;6.80;;
19944;SDS011;10134;50.952;6.930;2022-07-30T10:39:34;18.25;;;11.23;;
19944;SDS011;10134;50.952;6.930;2022-07-30T10:47:18;10.07;;;6.00;;
19944;SDS011;10134;50.952;6.930;2022-07-30T10:50:03;7.80;;;5.90;;
19944;SDS011;10134;50.952;6.930;2022-07-30T10:52:50;10.70;;;5.80;;
19944;SDS011;10134;50.952;6.930;2022-07-30T10:55:28;9.60;;;5.50;;
19944;SDS011;10134;50.952;6.930;2022-07-30T10:58:06;8.00;;;5.05;;
19944;SDS011;10134;50.952;6.930;2022-07-30T11:00:56;6.38;;;3.95;;
19944;SDS011;10134;50.952;6.930;2022-07-30T11:03:26;9.80;;;5.25;;
19944;SDS011;10134;50.952;6.930;2022-07-30T11:08:42;7.15;;;4.53;;
19944;SDS011;10134;50.952;6.930;2022-07-30T11:11:40;4.72;;;3.85;;
19944;SDS011;10134;50.952;6.930;2022-07-30T11:17:14;7.60;;;4.68;;
19944;SDS011;10134;50.952;6.930;2022-07-30T11:22:38;7.88;;;4.45;;
19944;SDS011;10134;50.952;6.930;2022-07-30T11:25:07;6.63;;;4.40;;
19944;SDS011;10134;50.952;6.930;2022-07-30T11:27:40;10.18;;;4.80;;
19944;SDS011;10134;50.952;6.930;2022-07-30T11:32:46;6.90;;;4.10;;
19944;SDS011;10134;50.952;6.930;2022-07-30T11:35:19;9.25;;;4.70;;
19944;SDS011;10134;50.952;6.930;2022-07-30T11:43:27;8.23;;;4.32;;
19944;SDS011;10134;50.952;6.930;2022-07-30T11:48:53;5.25;;;3.67;;
19944;SDS011;10134;50.952;6.930;2022-07-30T11:51:21;6.35;;;3.85;;
19944;SDS011;10134;50.952;6.930;2022-07-30T11:53:58;9.35;;;4.57;;
19944;SDS011;10134;50.952;6.930;2022-07-30T11:56:27;6.95;;;4.10;;
19944;SDS011;10134;50.952;6.930;2022-07-30T11:59:01;10.70;;;3.92;;
19944;SDS011;10134;50.952;6.930;2022-07-30T12:01:30;7.35;;;4.28;;
19944;SDS011;10134;50.952;6.930;2022-07-30T12:04:05;7.68;;;4.38;;
19944;SDS011;10134;50.952;6.930;2022-07-30T12:06:32;7.45;;;4.40;;
19944;SDS011;10134;50.952;6.930;2022-07-30T12:09:08;7.60;;;2.92;;
19944;SDS011;10134;50.952;6.930;2022-07-30T12:11:36;7.43;;;3.50;;
19944;SDS011;10134;50.952;6.930;2022-07-30T12:14:03;5.00;;;3.03;;
19944;SDS011;10134;50.952;6.930;2022-07-30T12:16:31;5.55;;;3.33;;
19944;SDS011;10134;50.952;6.930;2022-07-30T12:19:01;5.10;;;2.90;;
19944;SDS011;10134;50.952;6.930;2022-07-30T12:21:32;6.15;;;2.80;;
19944;SDS011;10134;50.952;6.930;2022-07-30T12:24:01;5.15;;;2.47;;
19944;SDS011;10134;50.952;6.930;2022-07-30T12:26:40;11.00;;;6.72;;
19944;SDS011;10134;50.952;6.930;2022-07-30T12:29:08;6.05;;;2.88;;
19944;SDS011;10134;50.952;6.930;2022-07-30T12:31:39;6.03;;;3.03;;
19944;SDS011;10134;50.952;6.930;2022-07-30T12:36:47;3.85;;;2.25;;
19944;SDS011;10134;50.952;6.930;2022-07-30T12:39:22;5.03;;;2.90;;
19944;SDS011;10134;50.952;6.930;2022-07-30T12:41:51;4.93;;;2.47;;
19944;SDS011;10134;50.952;6.930;2022-07-30T12:44:40;5.28;;;2.28;;
19944;SDS011;10134;50.952;6.930;2022-07-30T12:47:20;6.78;;;2.90;;
19944;SDS011;10134;50.952;6.930;2022-07-30T12:49:50;3.95;;;2.60;;
19944;SDS011;10134;50.952;6.930;2022-07-30T12:52:26;5.63;;;3.05;;
19944;SDS011;10134;50.952;6.930;2022-07-30T12:57:50;6.55;;;2.70;;
19944;SDS011;10134;50.952;6.930;2022-07-30T13:00:18;3.97;;;2.28;;
19944;SDS011;10134;50.952;6.930;2022-07-30T13:02:46;4.07;;;2.00;;
19944;SDS011;10134;50.952;6.930;2022-07-30T13:05:13;5.30;;;2.50;;
19944;SDS011;10134;50.952;6.930;2022-07-30T13:07:55;4.97;;;2.50;;
19944;SDS011;10134;50.952;6.930;2022-07-30T13:10:23;4.68;;;2.58;;
19944;SDS011;10134;50.952;6.930;2022-07-30T13:12:57;3.97;;;2.20;;
19944;SDS011;10134;50.952;6.930;2022-07-30T13:15:25;7.63;;;2.97;;
19944;SDS011;10134;50.952;6.930;2022-07-30T13:17:52;4.22;;;2.30;;
19944;SDS011;10134;50.952;6.930;2022-07-30T13:20:19;5.88;;;2.30;;
19944;SDS011;10134;50.952;6.930;2022-07-30T13:22:47;6.78;;;2.65;;
19944;SDS011;10134;50.952;6.930;2022-07-30T13:25:15;8.90;;;2.50;;
19944;SDS011;10134;50.952;6.930;2022-07-30T13:27:42;5.57;;;2.20;;
19944;SDS011;10134;50.952;6.930;2022-07-30T13:30:09;3.80;;;2.20;;
19944;SDS011;10134;50.952;6.930;2022-07-30T13:32:37;3.90;;;2.13;;
19944;SDS011;10134;50.952;6.930;2022-07-30T13:35:04;3.45;;;2.30;;
19944;SDS011;10134;50.952;6.930;2022-07-30T13:37:32;7.07;;;3.60;;
19944;SDS011;10134;50.952;6.930;2022-07-30T13:40:04;4.75;;;1.88;;
19944;SDS011;10134;50.952;6.930;2022-07-30T13:42:32;4.43;;;2.10;;
19944;SDS011;10134;50.952;6.930;2022-07-30T13:45:00;5.90;;;3.40;;
19944;SDS011;10134;50.952;6.930;2022-07-30T13:47:27;3.88;;;2.60;;
19944;SDS011;10134;50.952;6.930;2022-07-30T13:49:55;4.88;;;2.10;;
19944;SDS011;10134;50.952;6.930;2022-07-30T13:52:22;3.10;;;1.85;;
19944;SDS011;10134;50.952;6.930;2022-07-30T13:54:49;5.15;;;1.90;;
19944;SDS011;10134;50.952;6.930;2022-07-30T13:57:18;3.88;;;2.05;;
19944;SDS011;10134;50.952;6.930;2022-07-30T13:59:45;2.88;;;1.55;;
19944;SDS011;10134;50.952;6.930;2022-07-30T14:02:12;8.45;;;1.92;;
19944;SDS011;10134;50.952;6.930;2022-07-30T14:04:40;4.05;;;1.85;;
19944;SDS011;10134;50.952;6.930;2022-07-30T14:07:07;2.42;;;1.48;;
19944;SDS011;10134;50.952;6.930;2022-07-30T14:09:34;2.40;;;1.20;;
19944;SDS011;10134;50.952;6.930;2022-07-30T14:12:13;4.95;;;2.08;;
19944;SDS011;10134;50.952;6.930;2022-07-30T14:14:41;8.85;;;1.58;;
19944;SDS011;10134;50.952;6.930;2022-07-30T14:17:08;3.05;;;1.25;;
19944;SDS011;10134;50.952;6.930;2022-07-30T14:19:35;2.40;;;1.35;;
19944;SDS011;10134;50.952;6.930;2022-07-30T14:22:02;2.17;;;1.45;;
19944;SDS011;10134;50.952;6.930;2022-07-30T14:24:30;5.05;;;1.88;;
19944;SDS011;10134;50.952;6.930;2022-07-30T14:26:57;2.15;;;1.25;;
19944;SDS011;10134;50.952;6.930;2022-07-30T14:29:25;3.75;;;1.30;;
19944;SDS011;10134;50.952;6.930;2022-07-30T14:31:53;1.45;;;1.10;;
19944;SDS011;10134;50.952;6.930;2022-07-30T14:34:21;2.45;;;1.40;;
19944;SDS011;10134;50.952;6.930;2022-07-30T14:36:48;2.20;;;1.20;;
19944;SDS011;10134;50.952;6.930;2022-07-30T14:39:16;1.67;;;1.00;;
19944;SDS011;10134;50.952;6.930;2022-07-30T14:41:43;3.53;;;1.35;;
19944;SDS011;10134;50.952;6.930;2022-07-30T14:44:10;3.50;;;1.17;;
19944;SDS011;10134;50.952;6.930;2022-07-30T14:46:40;1.85;;;0.75;;
19944;SDS011;10134;50.952;6.930;2022-07-30T14:49:18;1.40;;;0.90;;
19944;SDS011;10134;50.952;6.930;2022-07-30T14:51:46;2.38;;;1.17;;
19944;SDS011;10134;50.952;6.930;2022-07-30T14:54:14;2.35;;;0.75;;
19944;SDS011;10134;50.952;6.930;2022-07-30T14:56:41;1.50;;;0.70;;
19944;SDS011;10134;50.952;6.930;2022-07-30T14:59:08;2.97;;;0.98;;
19944;SDS011;10134;50.952;6.930;2022-07-30T15:01:36;1.20;;;0.60;;
19944;SDS011;10134;50.952;6.930;2022-07-30T15:04:04;0.68;;;0.68;;
19944;SDS011;10134;50.952;6.930;2022-07-30T15:06:35;1.02;;;0.75;;
19944;SDS011;10134;50.952;6.930;2022-07-30T15:09:02;2.75;;;1.08;;
19944;SDS011;10134;50.952;6.930;2022-07-30T15:11:30;2.35;;;1.35;;
19944;SDS011;10134;50.952;6.930;2022-07-30T15:14:17;2.03;;;0.93;;
19944;SDS011;10134;50.952;6.930;2022-07-30T15:16:46;1.40;;;0.73;;
19944;SDS011;10134;50.952;6.930;2022-07-30T15:19:13;0.85;;;0.73;;
19944;SDS011;10134;50.952;6.930;2022-07-30T15:21:41;2.28;;;0.82;;
19944;SDS011;10134;50.952;6.930;2022-07-30T15:24:10;1.88;;;0.90;;
19944;SDS011;10134;50.952;6.930;2022-07-30T15:26:37;3.28;;;1.42;;
19944;SDS011;10134;50.952;6.930;2022-07-30T15:29:05;2.38;;;0.73;;
19944;SDS011;10134;50.952;6.930;2022-07-30T15:31:38;3.50;;;1.00;;
19944;SDS011;10134;50.952;6.930;2022-07-30T15:34:06;2.10;;;1.23;;
19944;SDS011;10134;50.952;6.930;2022-07-30T15:36:38;1.75;;;1.00;;
19944;SDS011;10134;50.952;6.930;2022-07-30T15:39:05;1.55;;;1.10;;
19944;SDS011;10134;50.952;6.930;2022-07-30T15:41:33;1.42;;;1.08;;
19944;SDS011;10134;50.952;6.930;2022-07-30T15:44:02;1.58;;;1.10;;
19944;SDS011;10134;50.952;6.930;2022-07-30T15:46:29;3.88;;;1.50;;
19944;SDS011;10134;50.952;6.930;2022-07-30T15:48:57;1.83;;;1.13;;